sensor_id;sensor_type;location;lat;lon;timestamp;temperature;humidity
46037;DHT22;31769;49.304;8.428;2023-07-20T00:02:31;20.00;92.10
46037;DHT22;31769;49.304;8.428;2023-07-20T00:05:32;20.00;92.40
46037;DHT22;31769;49.304;8.428;2023-07-20T00:08:33;19.90;92.70
46037;DHT22;31769;49.304;8.428;2023-07-20T00:11:36;19.90;93.00
46037;DHT22;31769;49.304;8.428;2023-07-20T00:14:38;19.80;93.10
46037;DHT22;31769;49.304;8.428;2023-07-20T00:17:38;19.70;93.50
46037;DHT22;31769;49.304;8.428;2023-07-20T00:20:40;19.70;93.80
46037;DHT22;31769;49.304;8.428;2023-07-20T00:23:41;19.70;94.00
46037;DHT22;31769;49.304;8.428;2023-07-20T00:26:41;19.60;94.30
46037;DHT22;31769;49.304;8.428;2023-07-20T00:29:43;19.60;94.60
46037;DHT22;31769;49.304;8.428;2023-07-20T00:32:43;19.60;94.90
46037;DHT22;31769;49.304;8.428;2023-07-20T00:35:44;19.60;95.00
46037;DHT22;31769;49.304;8.428;2023-07-20T00:38:45;19.60;95.10
46037;DHT22;31769;49.304;8.428;2023-07-20T00:41:45;19.60;95.20
46037;DHT22;31769;49.304;8.428;2023-07-20T00:44:46;19.60;95.30
46037;DHT22;31769;49.304;8.428;2023-07-20T00:47:47;19.60;95.60
46037;DHT22;31769;49.304;8.428;2023-07-20T00:50:48;19.50;95.90
46037;DHT22;31769;49.304;8.428;2023-07-20T00:53:49;19.40;96.20
46037;DHT22;31769;49.304;8.428;2023-07-20T00:56:50;19.40;96.50
46037;DHT22;31769;49.304;8.428;2023-07-20T00:59:54;19.40;96.80
46037;DHT22;31769;49.304;8.428;2023-07-20T01:02:54;19.30;97.00
46037;DHT22;31769;49.304;8.428;2023-07-20T01:09:18;19.30;97.40
46037;DHT22;31769;49.304;8.428;2023-07-20T01:12:27;19.30;97.60
46037;DHT22;31769;49.304;8.428;2023-07-20T01:15:29;19.30;97.90
46037;DHT22;31769;49.304;8.428;2023-07-20T01:18:30;19.30;98.10
46037;DHT22;31769;49.304;8.428;2023-07-20T01:31:57;19.00;99.80
46037;DHT22;31769;49.304;8.428;2023-07-20T01:34:59;18.70;99.90
46037;DHT22;31769;49.304;8.428;2023-07-20T01:38:02;18.40;99.90
46037;DHT22;31769;49.304;8.428;2023-07-20T01:41:05;18.30;99.90
46037;DHT22;31769;49.304;8.428;2023-07-20T01:44:06;18.20;99.90
46037;DHT22;31769;49.304;8.428;2023-07-20T01:47:06;18.20;99.90
46037;DHT22;31769;49.304;8.428;2023-07-20T01:50:07;18.20;99.90
46037;DHT22;31769;49.304;8.428;2023-07-20T01:53:08;18.20;99.90
46037;DHT22;31769;49.304;8.428;2023-07-20T01:56:09;18.10;99.90
46037;DHT22;31769;49.304;8.428;2023-07-20T01:59:12;18.10;99.90
46037;DHT22;31769;49.304;8.428;2023-07-20T02:02:13;18.00;99.90
46037;DHT22;31769;49.304;8.428;2023-07-20T02:05:14;17.90;99.90
46037;DHT22;31769;49.304;8.428;2023-07-20T02:08:15;17.90;99.90
46037;DHT22;31769;49.304;8.428;2023-07-20T02:11:16;19.50;99.90
46037;DHT22;31769;49.304;8.428;2023-07-20T02:14:17;17.70;99.90
46037;DHT22;31769;49.304;8.428;2023-07-20T02:17:17;17.70;99.90
46037;DHT22;31769;49.304;8.428;2023-07-20T02:20:18;18.20;99.90
46037;DHT22;31769;49.304;8.428;2023-07-20T02:23:20;17.60;99.90
46037;DHT22;31769;49.304;8.428;2023-07-20T02:26:20;17.50;99.90
46037;DHT22;31769;49.304;8.428;2023-07-20T02:29:21;17.50;99.90
46037;DHT22;31769;49.304;8.428;2023-07-20T02:32:22;17.50;99.90
46037;DHT22;31769;49.304;8.428;2023-07-20T02:35:23;18.00;99.90
46037;DHT22;31769;49.304;8.428;2023-07-20T02:38:23;17.40;99.90
46037;DHT22;31769;49.304;8.428;2023-07-20T02:41:24;18.10;99.90
46037;DHT22;31769;49.304;8.428;2023-07-20T02:44:25;17.40;99.90
46037;DHT22;31769;49.304;8.428;2023-07-20T02:47:26;17.50;99.90
46037;DHT22;31769;49.304;8.428;2023-07-20T02:50:27;18.30;99.90
46037;DHT22;31769;49.304;8.428;2023-07-20T02:53:28;17.60;99.90
46037;DHT22;31769;49.304;8.428;2023-07-20T02:56:28;17.30;99.90
46037;DHT22;31769;49.304;8.428;2023-07-20T02:59:29;17.90;99.90
46037;DHT22;31769;49.304;8.428;2023-07-20T03:02:30;17.20;99.90
46037;DHT22;31769;49.304;8.428;2023-07-20T03:05:31;17.30;99.90
46037;DHT22;31769;49.304;8.428;2023-07-20T03:08:32;17.40;99.90
46037;DHT22;31769;49.304;8.428;2023-07-20T03:11:32;17.60;99.90
46037;DHT22;31769;49.304;8.428;2023-07-20T03:14:34;17.60;99.90
46037;DHT22;31769;49.304;8.428;2023-07-20T03:17:35;17.50;99.90
46037;DHT22;31769;49.304;8.428;2023-07-20T03:20:36;18.10;99.90
46037;DHT22;31769;49.304;8.428;2023-07-20T03:23:38;17.90;99.90
46037;DHT22;31769;49.304;8.428;2023-07-20T03:26:39;17.50;99.90
46037;DHT22;31769;49.304;8.428;2023-07-20T03:29:41;19.00;99.90
46037;DHT22;31769;49.304;8.428;2023-07-20T03:32:42;17.50;99.90
46037;DHT22;31769;49.304;8.428;2023-07-20T03:35:43;17.50;99.90
46037;DHT22;31769;49.304;8.428;2023-07-20T03:38:44;17.50;99.90
46037;DHT22;31769;49.304;8.428;2023-07-20T03:41:45;17.60;99.90
46037;DHT22;31769;49.304;8.428;2023-07-20T03:44:45;17.40;99.90
46037;DHT22;31769;49.304;8.428;2023-07-20T03:47:46;17.40;99.90
46037;DHT22;31769;49.304;8.428;2023-07-20T03:50:50;17.40;99.90
46037;DHT22;31769;49.304;8.428;2023-07-20T03:53:50;17.30;99.90
46037;DHT22;31769;49.304;8.428;2023-07-20T03:56:51;18.20;99.90
46037;DHT22;31769;49.304;8.428;2023-07-20T03:59:52;17.40;99.90
46037;DHT22;31769;49.304;8.428;2023-07-20T04:02:53;17.30;99.90
46037;DHT22;31769;49.304;8.428;2023-07-20T04:05:54;17.20;99.90
46037;DHT22;31769;49.304;8.428;2023-07-20T04:08:55;17.10;99.90
46037;DHT22;31769;49.304;8.428;2023-07-20T04:11:56;17.10;99.90
46037;DHT22;31769;49.304;8.428;2023-07-20T04:14:57;17.10;99.90
46037;DHT22;31769;49.304;8.428;2023-07-20T04:17:58;17.00;99.90
46037;DHT22;31769;49.304;8.428;2023-07-20T04:20:59;16.90;99.90
46037;DHT22;31769;49.304;8.428;2023-07-20T04:23:59;16.80;99.90
46037;DHT22;31769;49.304;8.428;2023-07-20T04:27:00;16.80;99.90
46037;DHT22;31769;49.304;8.428;2023-07-20T04:30:01;17.70;99.90
46037;DHT22;31769;49.304;8.428;2023-07-20T04:33:04;16.80;99.90
46037;DHT22;31769;49.304;8.428;2023-07-20T04:36:06;16.80;99.90
46037;DHT22;31769;49.304;8.428;2023-07-20T04:39:09;16.80;99.90
46037;DHT22;31769;49.304;8.428;2023-07-20T04:42:15;16.80;99.90
46037;DHT22;31769;49.304;8.428;2023-07-20T04:45:16;16.80;99.90
46037;DHT22;31769;49.304;8.428;2023-07-20T04:48:19;16.80;99.90
46037;DHT22;31769;49.304;8.428;2023-07-20T04:51:25;16.80;99.90
46037;DHT22;31769;49.304;8.428;2023-07-20T04:54:29;16.80;99.90
46037;DHT22;31769;49.304;8.428;2023-07-20T04:57:30;16.90;99.90
46037;DHT22;31769;49.304;8.428;2023-07-20T05:00:32;16.80;99.90
46037;DHT22;31769;49.304;8.428;2023-07-20T05:03:33;16.90;99.90
46037;DHT22;31769;49.304;8.428;2023-07-20T05:06:34;17.00;99.90
46037;DHT22;31769;49.304;8.428;2023-07-20T05:09:35;17.70;99.90
46037;DHT22;31769;49.304;8.428;2023-07-20T05:12:36;17.20;99.90
46037;DHT22;31769;49.304;8.428;2023-07-20T05:15:37;17.20;99.90
46037;DHT22;31769;49.304;8.428;2023-07-20T05:18:38;17.20;99.90
46037;DHT22;31769;49.304;8.428;2023-07-20T05:21:39;17.30;99.90
46037;DHT22;31769;49.304;8.428;2023-07-20T05:24:41;17.30;99.90
46037;DHT22;31769;49.304;8.428;2023-07-20T05:27:41;17.50;99.90
46037;DHT22;31769;49.304;8.428;2023-07-20T05:30:42;17.60;99.90
46037;DHT22;31769;49.304;8.428;2023-07-20T05:33:43;17.70;99.90
46037;DHT22;31769;49.304;8.428;2023-07-20T05:36:44;17.70;99.90
46037;DHT22;31769;49.304;8.428;2023-07-20T05:39:44;17.80;99.90
46037;DHT22;31769;49.304;8.428;2023-07-20T05:42:46;18.00;99.90
46037;DHT22;31769;49.304;8.428;2023-07-20T05:45:47;18.00;99.90
46037;DHT22;31769;49.304;8.428;2023-07-20T05:48:48;18.20;99.90
46037;DHT22;31769;49.304;8.428;2023-07-20T05:51:49;18.30;99.90
46037;DHT22;31769;49.304;8.428;2023-07-20T05:54:50;18.40;99.90
46037;DHT22;31769;49.304;8.428;2023-07-20T05:57:51;18.40;99.90
46037;DHT22;31769;49.304;8.428;2023-07-20T06:00:53;18.50;99.90
46037;DHT22;31769;49.304;8.428;2023-07-20T06:03:54;18.50;99.90
46037;DHT22;31769;49.304;8.428;2023-07-20T06:06:54;18.60;99.90
46037;DHT22;31769;49.304;8.428;2023-07-20T06:09:55;18.60;99.90
46037;DHT22;31769;49.304;8.428;2023-07-20T06:12:56;18.70;99.90
46037;DHT22;31769;49.304;8.428;2023-07-20T06:15:57;18.80;99.90
46037;DHT22;31769;49.304;8.428;2023-07-20T06:19:00;19.00;99.90
46037;DHT22;31769;49.304;8.428;2023-07-20T06:22:02;19.10;99.90
46037;DHT22;31769;49.304;8.428;2023-07-20T06:25:03;19.20;99.90
46037;DHT22;31769;49.304;8.428;2023-07-20T06:28:04;19.40;99.90
46037;DHT22;31769;49.304;8.428;2023-07-20T06:31:05;19.30;99.90
46037;DHT22;31769;49.304;8.428;2023-07-20T06:34:06;19.40;99.90
46037;DHT22;31769;49.304;8.428;2023-07-20T06:37:07;19.20;99.90
46037;DHT22;31769;49.304;8.428;2023-07-20T06:40:08;19.30;99.90
46037;DHT22;31769;49.304;8.428;2023-07-20T06:43:12;19.40;99.90
46037;DHT22;31769;49.304;8.428;2023-07-20T06:46:13;19.60;99.90
46037;DHT22;31769;49.304;8.428;2023-07-20T06:49:34;19.90;99.90
46037;DHT22;31769;49.304;8.428;2023-07-20T06:52:35;20.10;99.90
46037;DHT22;31769;49.304;8.428;2023-07-20T06:55:36;20.20;99.90
46037;DHT22;31769;49.304;8.428;2023-07-20T06:58:37;20.20;99.90
46037;DHT22;31769;49.304;8.428;2023-07-20T07:01:37;20.40;99.90
46037;DHT22;31769;49.304;8.428;2023-07-20T07:04:39;20.30;99.90
46037;DHT22;31769;49.304;8.428;2023-07-20T07:07:40;20.30;99.90
46037;DHT22;31769;49.304;8.428;2023-07-20T07:10:41;20.20;99.90
46037;DHT22;31769;49.304;8.428;2023-07-20T07:13:42;20.20;99.90
46037;DHT22;31769;49.304;8.428;2023-07-20T07:16:43;20.50;99.90
46037;DHT22;31769;49.304;8.428;2023-07-20T07:19:43;20.70;99.90
46037;DHT22;31769;49.304;8.428;2023-07-20T07:22:45;20.80;99.90
46037;DHT22;31769;49.304;8.428;2023-07-20T07:25:46;21.00;99.90
46037;DHT22;31769;49.304;8.428;2023-07-20T07:28:46;21.20;99.90
46037;DHT22;31769;49.304;8.428;2023-07-20T07:31:47;21.20;99.90
46037;DHT22;31769;49.304;8.428;2023-07-20T07:34:48;21.10;99.90
46037;DHT22;31769;49.304;8.428;2023-07-20T07:37:49;21.10;99.90
46037;DHT22;31769;49.304;8.428;2023-07-20T07:40:50;21.30;99.90
46037;DHT22;31769;49.304;8.428;2023-07-20T07:43:50;21.40;99.90
46037;DHT22;31769;49.304;8.428;2023-07-20T07:46:51;21.70;99.90
46037;DHT22;31769;49.304;8.428;2023-07-20T07:49:52;21.90;99.90
46037;DHT22;31769;49.304;8.428;2023-07-20T07:52:53;22.20;99.90
46037;DHT22;31769;49.304;8.428;2023-07-20T07:55:53;22.20;99.90
46037;DHT22;31769;49.304;8.428;2023-07-20T07:58:54;22.10;99.90
46037;DHT22;31769;49.304;8.428;2023-07-20T08:01:55;21.90;99.90
46037;DHT22;31769;49.304;8.428;2023-07-20T08:04:56;22.20;99.90
46037;DHT22;31769;49.304;8.428;2023-07-20T08:07:56;22.30;99.90
46037;DHT22;31769;49.304;8.428;2023-07-20T08:10:58;22.50;99.90
46037;DHT22;31769;49.304;8.428;2023-07-20T08:14:00;22.20;99.90
46037;DHT22;31769;49.304;8.428;2023-07-20T08:17:00;22.10;99.90
46037;DHT22;31769;49.304;8.428;2023-07-20T08:20:01;22.10;99.90
46037;DHT22;31769;49.304;8.428;2023-07-20T08:23:02;22.10;99.90
46037;DHT22;31769;49.304;8.428;2023-07-20T08:26:03;22.10;99.90
46037;DHT22;31769;49.304;8.428;2023-07-20T08:29:04;22.20;99.90
46037;DHT22;31769;49.304;8.428;2023-07-20T08:32:05;22.10;99.90
46037;DHT22;31769;49.304;8.428;2023-07-20T08:35:06;22.00;99.90
46037;DHT22;31769;49.304;8.428;2023-07-20T08:38:07;21.80;99.90
46037;DHT22;31769;49.304;8.428;2023-07-20T08:41:09;21.90;99.90
46037;DHT22;31769;49.304;8.428;2023-07-20T08:44:10;22.00;99.90
46037;DHT22;31769;49.304;8.428;2023-07-20T08:47:12;22.20;99.90
46037;DHT22;31769;49.304;8.428;2023-07-20T08:50:15;22.50;99.90
46037;DHT22;31769;49.304;8.428;2023-07-20T08:53:16;22.60;99.50
46037;DHT22;31769;49.304;8.428;2023-07-20T08:56:18;22.90;99.10
46037;DHT22;31769;49.304;8.428;2023-07-20T08:59:21;22.90;98.70
46037;DHT22;31769;49.304;8.428;2023-07-20T09:02:25;23.30;98.40
46037;DHT22;31769;49.304;8.428;2023-07-20T09:05:27;24.10;97.80
46037;DHT22;31769;49.304;8.428;2023-07-20T09:08:27;24.60;96.50
46037;DHT22;31769;49.304;8.428;2023-07-20T09:11:28;24.80;95.50
46037;DHT22;31769;49.304;8.428;2023-07-20T09:14:30;24.60;94.60
46037;DHT22;31769;49.304;8.428;2023-07-20T09:17:33;24.60;93.90
46037;DHT22;31769;49.304;8.428;2023-07-20T09:20:34;24.50;93.80
46037;DHT22;31769;49.304;8.428;2023-07-20T09:23:37;24.10;94.40
46037;DHT22;31769;49.304;8.428;2023-07-20T09:26:44;23.90;94.80
46037;DHT22;31769;49.304;8.428;2023-07-20T09:29:49;23.70;95.30
46037;DHT22;31769;49.304;8.428;2023-07-20T09:32:50;23.80;94.90
46037;DHT22;31769;49.304;8.428;2023-07-20T09:35:53;23.70;94.80
46037;DHT22;31769;49.304;8.428;2023-07-20T09:38:54;23.80;94.90
46037;DHT22;31769;49.304;8.428;2023-07-20T09:42:00;24.00;94.70
46037;DHT22;31769;49.304;8.428;2023-07-20T09:45:01;24.10;93.80
46037;DHT22;31769;49.304;8.428;2023-07-20T09:48:06;24.30;93.40
46037;DHT22;31769;49.304;8.428;2023-07-20T09:51:07;24.40;92.80
46037;DHT22;31769;49.304;8.428;2023-07-20T09:54:08;24.50;92.20
46037;DHT22;31769;49.304;8.428;2023-07-20T09:57:09;24.20;91.70
46037;DHT22;31769;49.304;8.428;2023-07-20T10:00:11;24.00;92.00
46037;DHT22;31769;49.304;8.428;2023-07-20T10:03:18;24.20;91.40
46037;DHT22;31769;49.304;8.428;2023-07-20T10:06:23;24.50;91.30
46037;DHT22;31769;49.304;8.428;2023-07-20T10:09:25;24.60;91.40
46037;DHT22;31769;49.304;8.428;2023-07-20T10:12:27;24.90;91.20
46037;DHT22;31769;49.304;8.428;2023-07-20T10:15:40;25.20;90.80
46037;DHT22;31769;49.304;8.428;2023-07-20T10:19:07;25.40;90.30
46037;DHT22;31769;49.304;8.428;2023-07-20T10:22:18;25.70;90.10
46037;DHT22;31769;49.304;8.428;2023-07-20T10:25:21;25.70;89.80
46037;DHT22;31769;49.304;8.428;2023-07-20T10:28:23;25.80;89.10
46037;DHT22;31769;49.304;8.428;2023-07-20T10:31:25;25.60;88.20
46037;DHT22;31769;49.304;8.428;2023-07-20T10:34:29;25.60;88.00
46037;DHT22;31769;49.304;8.428;2023-07-20T10:37:50;25.90;88.20
46037;DHT22;31769;49.304;8.428;2023-07-20T10:40:55;26.20;86.20
46037;DHT22;31769;49.304;8.428;2023-07-20T10:44:03;26.00;86.30
46037;DHT22;31769;49.304;8.428;2023-07-20T10:47:12;25.40;87.10
46037;DHT22;31769;49.304;8.428;2023-07-20T10:50:13;25.10;87.70
46037;DHT22;31769;49.304;8.428;2023-07-20T10:53:15;25.30;88.00
46037;DHT22;31769;49.304;8.428;2023-07-20T10:56:20;25.90;86.90
46037;DHT22;31769;49.304;8.428;2023-07-20T11:02:26;26.80;85.50
46037;DHT22;31769;49.304;8.428;2023-07-20T11:08:40;27.40;82.40
46037;DHT22;31769;49.304;8.428;2023-07-20T11:11:43;26.90;83.10
46037;DHT22;31769;49.304;8.428;2023-07-20T11:14:55;26.50;82.80
46037;DHT22;31769;49.304;8.428;2023-07-20T11:18:11;26.40;82.90
46037;DHT22;31769;49.304;8.428;2023-07-20T11:21:12;26.30;82.70
46037;DHT22;31769;49.304;8.428;2023-07-20T11:24:13;26.30;82.10
46037;DHT22;31769;49.304;8.428;2023-07-20T11:27:13;26.30;82.70
46037;DHT22;31769;49.304;8.428;2023-07-20T11:30:17;26.60;81.80
46037;DHT22;31769;49.304;8.428;2023-07-20T11:33:18;26.60;80.00
46037;DHT22;31769;49.304;8.428;2023-07-20T11:36:19;26.60;80.50
46037;DHT22;31769;49.304;8.428;2023-07-20T11:39:22;26.50;80.10
46037;DHT22;31769;49.304;8.428;2023-07-20T11:42:22;26.10;80.80
46037;DHT22;31769;49.304;8.428;2023-07-20T11:45:24;25.90;82.30
46037;DHT22;31769;49.304;8.428;2023-07-20T11:48:25;25.60;83.30
46037;DHT22;31769;49.304;8.428;2023-07-20T11:51:27;25.80;83.40
46037;DHT22;31769;49.304;8.428;2023-07-20T11:54:28;26.60;82.20
46037;DHT22;31769;49.304;8.428;2023-07-20T11:57:29;27.70;80.50
46037;DHT22;31769;49.304;8.428;2023-07-20T12:00:31;28.50;77.50
46037;DHT22;31769;49.304;8.428;2023-07-20T12:03:32;28.50;74.10
46037;DHT22;31769;49.304;8.428;2023-07-20T12:06:33;27.00;76.30
46037;DHT22;31769;49.304;8.428;2023-07-20T12:09:33;26.60;79.00
46037;DHT22;31769;49.304;8.428;2023-07-20T12:12:37;26.70;77.50
46037;DHT22;31769;49.304;8.428;2023-07-20T12:15:38;26.80;78.70
46037;DHT22;31769;49.304;8.428;2023-07-20T12:18:39;27.50;78.20
46037;DHT22;31769;49.304;8.428;2023-07-20T12:21:41;28.40;77.10
46037;DHT22;31769;49.304;8.428;2023-07-20T12:24:42;29.40;75.10
46037;DHT22;31769;49.304;8.428;2023-07-20T12:27:44;29.30;71.80
46037;DHT22;31769;49.304;8.428;2023-07-20T12:30:46;28.50;72.50
46037;DHT22;31769;49.304;8.428;2023-07-20T12:33:47;27.30;75.10
46037;DHT22;31769;49.304;8.428;2023-07-20T12:36:47;27.60;74.80
46037;DHT22;31769;49.304;8.428;2023-07-20T12:39:48;28.10;74.60
46037;DHT22;31769;49.304;8.428;2023-07-20T12:42:49;28.90;72.40
46037;DHT22;31769;49.304;8.428;2023-07-20T12:45:49;29.80;71.00
46037;DHT22;31769;49.304;8.428;2023-07-20T12:48:50;30.80;66.30
46037;DHT22;31769;49.304;8.428;2023-07-20T12:51:51;30.90;64.90
46037;DHT22;31769;49.304;8.428;2023-07-20T12:54:51;32.30;62.90
46037;DHT22;31769;49.304;8.428;2023-07-20T12:57:52;33.40;60.10
46037;DHT22;31769;49.304;8.428;2023-07-20T13:00:53;35.20;57.00
46037;DHT22;31769;49.304;8.428;2023-07-20T13:03:54;37.10;54.00
46037;DHT22;31769;49.304;8.428;2023-07-20T13:06:55;37.20;50.10
46037;DHT22;31769;49.304;8.428;2023-07-20T13:09:59;36.00;50.20
46037;DHT22;31769;49.304;8.428;2023-07-20T13:13:00;34.10;51.80
46037;DHT22;31769;49.304;8.428;2023-07-20T13:16:01;32.50;54.40
46037;DHT22;31769;49.304;8.428;2023-07-20T13:19:02;32.10;54.50
46037;DHT22;31769;49.304;8.428;2023-07-20T13:22:03;32.20;53.00
46037;DHT22;31769;49.304;8.428;2023-07-20T13:25:04;31.60;53.50
46037;DHT22;31769;49.304;8.428;2023-07-20T13:28:05;31.80;53.30
46037;DHT22;31769;49.304;8.428;2023-07-20T13:31:06;30.80;55.00
46037;DHT22;31769;49.304;8.428;2023-07-20T13:34:08;31.00;55.20
46037;DHT22;31769;49.304;8.428;2023-07-20T13:37:09;32.00;52.90
46037;DHT22;31769;49.304;8.428;2023-07-20T13:40:10;31.70;52.90
46037;DHT22;31769;49.304;8.428;2023-07-20T13:43:13;31.30;54.50
46037;DHT22;31769;49.304;8.428;2023-07-20T13:46:14;31.20;54.10
46037;DHT22;31769;49.304;8.428;2023-07-20T13:49:14;32.60;51.60
46037;DHT22;31769;49.304;8.428;2023-07-20T13:52:15;33.10;52.40
46037;DHT22;31769;49.304;8.428;2023-07-20T13:55:16;34.20;51.40
46037;DHT22;31769;49.304;8.428;2023-07-20T13:58:16;33.90;50.70
46037;DHT22;31769;49.304;8.428;2023-07-20T14:01:17;32.80;51.70
46037;DHT22;31769;49.304;8.428;2023-07-20T14:04:18;33.20;51.30
46037;DHT22;31769;49.304;8.428;2023-07-20T14:07:19;34.20;50.00
46037;DHT22;31769;49.304;8.428;2023-07-20T14:10:19;33.80;50.70
46037;DHT22;31769;49.304;8.428;2023-07-20T14:13:20;32.10;52.30
46037;DHT22;31769;49.304;8.428;2023-07-20T14:16:21;32.00;51.90
46037;DHT22;31769;49.304;8.428;2023-07-20T14:19:22;32.50;50.70
46037;DHT22;31769;49.304;8.428;2023-07-20T14:22:23;32.00;50.60
46037;DHT22;31769;49.304;8.428;2023-07-20T14:25:24;31.50;51.90
46037;DHT22;31769;49.304;8.428;2023-07-20T14:28:25;30.60;52.10
46037;DHT22;31769;49.304;8.428;2023-07-20T14:31:25;33.10;50.40
46037;DHT22;31769;49.304;8.428;2023-07-20T14:34:26;36.70;46.90
46037;DHT22;31769;49.304;8.428;2023-07-20T14:37:27;40.10;44.50
46037;DHT22;31769;49.304;8.428;2023-07-20T14:40:28;41.50;42.80
46037;DHT22;31769;49.304;8.428;2023-07-20T14:43:29;42.50;40.90
46037;DHT22;31769;49.304;8.428;2023-07-20T14:46:30;44.60;38.90
46037;DHT22;31769;49.304;8.428;2023-07-20T14:49:32;45.00;36.60
46037;DHT22;31769;49.304;8.428;2023-07-20T14:52:33;43.70;36.10
46037;DHT22;31769;49.304;8.428;2023-07-20T14:55:34;39.80;37.90
46037;DHT22;31769;49.304;8.428;2023-07-20T14:58:34;38.80;38.10
46037;DHT22;31769;49.304;8.428;2023-07-20T15:01:35;39.00;37.30
46037;DHT22;31769;49.304;8.428;2023-07-20T15:04:35;36.30;39.90
46037;DHT22;31769;49.304;8.428;2023-07-20T15:07:37;34.40;41.60
46037;DHT22;31769;49.304;8.428;2023-07-20T15:10:37;32.40;44.20
46037;DHT22;31769;49.304;8.428;2023-07-20T15:13:38;31.50;44.60
46037;DHT22;31769;49.304;8.428;2023-07-20T15:16:38;30.80;45.00
46037;DHT22;31769;49.304;8.428;2023-07-20T15:19:39;29.80;47.80
46037;DHT22;31769;49.304;8.428;2023-07-20T15:22:40;29.20;50.00
46037;DHT22;31769;49.304;8.428;2023-07-20T15:25:41;30.20;49.50
46037;DHT22;31769;49.304;8.428;2023-07-20T15:28:41;32.30;46.40
46037;DHT22;31769;49.304;8.428;2023-07-20T15:31:42;33.00;45.80
46037;DHT22;31769;49.304;8.428;2023-07-20T15:34:43;31.70;47.40
46037;DHT22;31769;49.304;8.428;2023-07-20T15:37:44;31.50;48.50
46037;DHT22;31769;49.304;8.428;2023-07-20T15:40:46;32.50;46.50
46037;DHT22;31769;49.304;8.428;2023-07-20T15:43:47;33.90;44.90
46037;DHT22;31769;49.304;8.428;2023-07-20T15:46:49;34.60;43.80
46037;DHT22;31769;49.304;8.428;2023-07-20T15:49:50;33.90;44.70
46037;DHT22;31769;49.304;8.428;2023-07-20T15:52:50;32.50;46.20
46037;DHT22;31769;49.304;8.428;2023-07-20T15:55:54;31.20;47.40
46037;DHT22;31769;49.304;8.428;2023-07-20T15:58:56;30.30;48.20
46037;DHT22;31769;49.304;8.428;2023-07-20T16:01:57;30.00;49.00
46037;DHT22;31769;49.304;8.428;2023-07-20T16:04:57;29.70;49.40
46037;DHT22;31769;49.304;8.428;2023-07-20T16:07:58;29.60;50.20
46037;DHT22;31769;49.304;8.428;2023-07-20T16:10:59;29.70;49.00
46037;DHT22;31769;49.304;8.428;2023-07-20T16:14:00;29.70;49.60
46037;DHT22;31769;49.304;8.428;2023-07-20T16:17:01;29.30;50.20
46037;DHT22;31769;49.304;8.428;2023-07-20T16:20:03;29.50;49.60
46037;DHT22;31769;49.304;8.428;2023-07-20T16:23:04;29.80;49.30
46037;DHT22;31769;49.304;8.428;2023-07-20T16:26:06;30.10;49.20
46037;DHT22;31769;49.304;8.428;2023-07-20T16:29:06;29.80;49.70
46037;DHT22;31769;49.304;8.428;2023-07-20T16:32:07;29.50;50.70
46037;DHT22;31769;49.304;8.428;2023-07-20T16:35:08;29.40;51.40
46037;DHT22;31769;49.304;8.428;2023-07-20T16:38:09;28.90;51.00
46037;DHT22;31769;49.304;8.428;2023-07-20T16:41:11;28.30;51.00
46037;DHT22;31769;49.304;8.428;2023-07-20T16:44:13;28.10;51.70
46037;DHT22;31769;49.304;8.428;2023-07-20T16:47:14;27.90;52.00
46037;DHT22;31769;49.304;8.428;2023-07-20T16:50:15;28.10;52.50
46037;DHT22;31769;49.304;8.428;2023-07-20T16:53:16;28.20;51.90
46037;DHT22;31769;49.304;8.428;2023-07-20T16:56:16;28.10;51.70
46037;DHT22;31769;49.304;8.428;2023-07-20T16:59:17;27.90;51.80
46037;DHT22;31769;49.304;8.428;2023-07-20T17:02:18;27.60;52.20
46037;DHT22;31769;49.304;8.428;2023-07-20T17:05:19;27.70;52.60
46037;DHT22;31769;49.304;8.428;2023-07-20T17:08:20;27.50;52.70
46037;DHT22;31769;49.304;8.428;2023-07-20T17:11:20;27.90;52.60
46037;DHT22;31769;49.304;8.428;2023-07-20T17:14:21;28.20;52.60
46037;DHT22;31769;49.304;8.428;2023-07-20T17:17:22;28.30;52.50
46037;DHT22;31769;49.304;8.428;2023-07-20T17:20:23;28.30;52.90
46037;DHT22;31769;49.304;8.428;2023-07-20T17:23:23;28.30;53.00
46037;DHT22;31769;49.304;8.428;2023-07-20T17:26:24;28.30;53.00
46037;DHT22;31769;49.304;8.428;2023-07-20T17:29:24;28.40;52.60
46037;DHT22;31769;49.304;8.428;2023-07-20T17:32:25;28.30;52.20
46037;DHT22;31769;49.304;8.428;2023-07-20T17:35:26;28.20;52.40
46037;DHT22;31769;49.304;8.428;2023-07-20T17:38:28;28.00;52.20
46037;DHT22;31769;49.304;8.428;2023-07-20T17:41:28;28.00;53.10
46037;DHT22;31769;49.304;8.428;2023-07-20T17:44:29;27.90;52.70
46037;DHT22;31769;49.304;8.428;2023-07-20T17:47:30;27.80;53.10
46037;DHT22;31769;49.304;8.428;2023-07-20T17:50:31;27.60;53.70
46037;DHT22;31769;49.304;8.428;2023-07-20T17:53:32;27.50;54.20
46037;DHT22;31769;49.304;8.428;2023-07-20T17:56:33;27.40;54.70
46037;DHT22;31769;49.304;8.428;2023-07-20T17:59:35;27.30;54.90
46037;DHT22;31769;49.304;8.428;2023-07-20T18:02:38;27.20;55.20
46037;DHT22;31769;49.304;8.428;2023-07-20T18:05:39;27.00;55.20
46037;DHT22;31769;49.304;8.428;2023-07-20T18:08:39;26.80;58.00
46037;DHT22;31769;49.304;8.428;2023-07-20T18:11:42;26.20;60.50
46037;DHT22;31769;49.304;8.428;2023-07-20T18:14:43;25.70;62.20
46037;DHT22;31769;49.304;8.428;2023-07-20T18:17:43;25.40;63.60
46037;DHT22;31769;49.304;8.428;2023-07-20T18:20:44;25.20;64.30
46037;DHT22;31769;49.304;8.428;2023-07-20T18:23:45;25.20;65.00
46037;DHT22;31769;49.304;8.428;2023-07-20T18:26:46;25.10;62.10
46037;DHT22;31769;49.304;8.428;2023-07-20T18:29:48;25.10;62.10
46037;DHT22;31769;49.304;8.428;2023-07-20T18:32:49;25.00;62.70
46037;DHT22;31769;49.304;8.428;2023-07-20T18:35:52;24.90;62.20
46037;DHT22;31769;49.304;8.428;2023-07-20T18:38:54;24.90;63.90
46037;DHT22;31769;49.304;8.428;2023-07-20T18:41:55;24.80;64.90
46037;DHT22;31769;49.304;8.428;2023-07-20T18:44:56;24.70;66.00
46037;DHT22;31769;49.304;8.428;2023-07-20T18:47:56;24.60;67.70
46037;DHT22;31769;49.304;8.428;2023-07-20T18:50:58;24.60;67.50
46037;DHT22;31769;49.304;8.428;2023-07-20T18:53:59;24.50;66.40
46037;DHT22;31769;49.304;8.428;2023-07-20T18:57:00;24.50;66.20
46037;DHT22;31769;49.304;8.428;2023-07-20T19:00:01;24.40;66.00
46037;DHT22;31769;49.304;8.428;2023-07-20T19:03:02;24.40;65.30
46037;DHT22;31769;49.304;8.428;2023-07-20T19:06:02;24.30;65.80
46037;DHT22;31769;49.304;8.428;2023-07-20T19:09:05;24.30;67.30
46037;DHT22;31769;49.304;8.428;2023-07-20T19:12:06;24.30;69.10
46037;DHT22;31769;49.304;8.428;2023-07-20T19:15:08;23.90;70.20
46037;DHT22;31769;49.304;8.428;2023-07-20T19:18:10;23.80;70.40
46037;DHT22;31769;49.304;8.428;2023-07-20T19:21:11;23.80;69.10
46037;DHT22;31769;49.304;8.428;2023-07-20T19:24:11;23.80;68.70
46037;DHT22;31769;49.304;8.428;2023-07-20T19:27:14;23.70;68.70